createdAt,value
2022-08-25T00:00:57.531Z,14.00
2022-08-25T00:03:46.182Z,13.90
2022-08-25T00:06:33.912Z,13.90
2022-08-25T00:09:23.363Z,13.80
2022-08-25T00:12:13.418Z,13.70
2022-08-25T00:15:02.175Z,13.70
2022-08-25T00:17:49.499Z,13.70
2022-08-25T00:20:36.256Z,13.70
2022-08-25T00:23:27.537Z,13.70
2022-08-25T00:26:16.199Z,13.60
2022-08-25T00:29:03.251Z,13.60
2022-08-25T00:31:52.434Z,13.50
2022-08-25T00:34:40.633Z,13.50
2022-08-25T00:37:27.844Z,13.50
2022-08-25T00:40:14.854Z,13.40
2022-08-25T00:43:01.578Z,13.40
2022-08-25T00:45:48.580Z,13.40
2022-08-25T00:48:39.038Z,13.30
2022-08-25T00:51:31.616Z,13.20
2022-08-25T00:54:23.956Z,13.20
2022-08-25T00:57:14.034Z,13.20
2022-08-25T01:00:01.583Z,13.10
2022-08-25T01:02:48.609Z,13.10
2022-08-25T01:05:37.250Z,13.10
2022-08-25T01:08:29.147Z,13.00
2022-08-25T01:11:16.357Z,12.90
2022-08-25T01:14:06.519Z,12.90
2022-08-25T01:16:54.142Z,12.80
2022-08-25T01:19:42.091Z,12.80
2022-08-25T01:22:32.260Z,12.80
2022-08-25T01:25:33.447Z,12.80
2022-08-25T01:28:21.969Z,12.70
2022-08-25T01:31:23.788Z,12.70
2022-08-25T01:34:13.314Z,12.70
2022-08-25T01:37:00.872Z,12.60
2022-08-25T01:39:49.893Z,12.60
2022-08-25T01:42:48.805Z,12.60
2022-08-25T01:45:35.602Z,12.50
2022-08-25T01:48:22.730Z,12.50
2022-08-25T01:51:09.532Z,12.50
2022-08-25T01:53:56.358Z,12.50
2022-08-25T01:56:44.765Z,12.50
2022-08-25T01:59:31.926Z,12.50
2022-08-25T02:02:19.154Z,12.40
2022-08-25T02:05:08.978Z,12.40
2022-08-25T02:07:56.046Z,12.40
2022-08-25T02:10:43.461Z,12.40
2022-08-25T02:13:32.586Z,12.30
2022-08-25T02:16:25.808Z,12.40
2022-08-25T02:19:13.477Z,12.30
2022-08-25T02:22:01.298Z,12.30
2022-08-25T02:24:48.088Z,12.20
2022-08-25T02:27:35.389Z,12.10
2022-08-25T02:30:23.973Z,12.10
2022-08-25T02:33:11.482Z,12.10
2022-08-25T02:35:59.875Z,12.00
2022-08-25T02:38:47.144Z,12.00
2022-08-25T02:41:35.024Z,12.00
2022-08-25T02:44:22.143Z,11.90
2022-08-25T02:47:10.455Z,11.90
2022-08-25T02:49:57.495Z,11.90
2022-08-25T02:52:45.372Z,11.80
2022-08-25T02:55:34.556Z,11.80
2022-08-25T02:58:21.993Z,11.80
2022-08-25T03:01:12.005Z,11.70
2022-08-25T03:04:01.766Z,11.70
2022-08-25T03:06:48.827Z,11.70
2022-08-25T03:09:35.617Z,11.70
2022-08-25T03:12:25.137Z,11.60
2022-08-25T03:15:16.464Z,11.70
2022-08-25T03:18:04.951Z,11.70
2022-08-25T03:20:53.589Z,11.60
2022-08-25T03:23:40.666Z,11.60
2022-08-25T03:26:44.997Z,11.50
2022-08-25T03:29:34.440Z,11.50
2022-08-25T03:32:21.428Z,11.50
2022-08-25T03:35:09.093Z,11.50
2022-08-25T03:37:59.901Z,11.50
2022-08-25T03:40:46.906Z,11.50
2022-08-25T03:43:33.724Z,11.40
2022-08-25T03:46:22.243Z,11.40
2022-08-25T03:49:11.759Z,11.40
2022-08-25T03:51:58.735Z,11.30
2022-08-25T03:54:46.950Z,11.30
2022-08-25T03:57:33.593Z,11.30
2022-08-25T04:00:23.956Z,11.20
2022-08-25T04:03:10.722Z,11.20
2022-08-25T04:06:01.771Z,11.20
2022-08-25T04:08:49.676Z,11.30
2022-08-25T04:11:38.026Z,11.20
2022-08-25T04:14:26.048Z,11.10
2022-08-25T04:17:12.876Z,11.10
2022-08-25T04:20:00.260Z,11.10
2022-08-25T04:22:47.728Z,11.10
2022-08-25T04:25:34.741Z,11.10
2022-08-25T04:28:22.866Z,11.00
2022-08-25T04:31:11.365Z,11.00
2022-08-25T04:33:58.792Z,11.00
2022-08-25T04:36:46.138Z,11.00
2022-08-25T04:39:39.502Z,11.00
2022-08-25T04:42:27.003Z,11.00
2022-08-25T04:45:15.431Z,11.00
2022-08-25T04:48:02.354Z,10.90
2022-08-25T04:50:49.302Z,10.90
2022-08-25T04:53:36.906Z,10.90
2022-08-25T04:56:25.634Z,10.90
2022-08-25T04:59:16.077Z,10.80
2022-08-25T05:02:05.854Z,10.80
2022-08-25T05:04:53.416Z,10.90
2022-08-25T05:07:40.430Z,10.90
2022-08-25T05:10:27.296Z,10.90
2022-08-25T05:13:14.128Z,10.90
2022-08-25T05:16:01.915Z,10.90
2022-08-25T05:18:52.229Z,10.90
2022-08-25T05:21:39.992Z,11.00
2022-08-25T05:24:28.130Z,11.10
2022-08-25T05:27:15.548Z,11.20
2022-08-25T05:30:02.672Z,11.20
2022-08-25T05:32:49.619Z,11.40
2022-08-25T05:35:38.068Z,11.40
2022-08-25T05:38:25.320Z,11.50
2022-08-25T05:41:15.800Z,11.50
2022-08-25T05:44:02.701Z,11.60
2022-08-25T05:46:51.333Z,11.80
2022-08-25T05:49:38.317Z,11.80
2022-08-25T05:52:28.790Z,12.00
2022-08-25T05:55:16.206Z,12.10
2022-08-25T05:58:03.295Z,12.20
2022-08-25T06:00:50.388Z,12.40
2022-08-25T06:03:36.897Z,12.70
2022-08-25T06:06:26.325Z,12.80
2022-08-25T06:09:17.250Z,12.90
2022-08-25T06:12:04.563Z,13.10
2022-08-25T06:14:52.202Z,13.20
2022-08-25T06:17:41.015Z,13.30
2022-08-25T06:20:30.841Z,13.40
2022-08-25T06:23:19.207Z,13.50
2022-08-25T06:26:08.730Z,13.70
2022-08-25T06:29:09.237Z,13.70
2022-08-25T06:32:11.830Z,13.90
2022-08-25T06:34:59.109Z,14.10
2022-08-25T06:37:48.441Z,14.20
2022-08-25T06:40:35.093Z,14.30
2022-08-25T06:43:24.305Z,14.80
2022-08-25T06:46:12.346Z,15.70
2022-08-25T06:49:00.853Z,17.30
2022-08-25T06:51:48.164Z,17.90
2022-08-25T06:54:34.935Z,18.40
2022-08-25T06:57:22.447Z,18.90
2022-08-25T07:00:12.571Z,19.30
2022-08-25T07:03:01.176Z,19.60
2022-08-25T07:06:02.418Z,20.50
2022-08-25T07:08:50.367Z,21.20
2022-08-25T07:11:39.732Z,21.90
2022-08-25T07:14:26.658Z,23.10
2022-08-25T07:17:15.432Z,23.80
2022-08-25T07:20:02.492Z,24.00
2022-08-25T07:22:49.807Z,22.30
2022-08-25T07:25:36.664Z,23.30
2022-08-25T07:28:25.388Z,23.20
2022-08-25T07:31:13.289Z,23.90
2022-08-25T07:34:19.028Z,25.10
2022-08-25T07:37:07.038Z,23.80
2022-08-25T07:39:55.300Z,24.00
2022-08-25T07:42:44.256Z,23.60
2022-08-25T07:45:33.977Z,22.70
2022-08-25T07:48:20.862Z,23.90
2022-08-25T07:51:11.230Z,24.40
2022-08-25T07:53:58.542Z,23.60
2022-08-25T07:56:48.292Z,24.60
2022-08-25T07:59:39.215Z,26.80
2022-08-25T08:02:27.232Z,28.00
2022-08-25T08:05:15.333Z,28.20
2022-08-25T08:08:05.101Z,26.20
2022-08-25T08:11:09.645Z,25.30
2022-08-25T08:13:58.373Z,26.10
2022-08-25T08:16:45.326Z,26.20
2022-08-25T08:19:32.153Z,26.40
2022-08-25T08:22:19.581Z,26.10
2022-08-25T08:25:10.594Z,26.70
2022-08-25T08:28:00.574Z,27.20
2022-08-25T08:30:53.430Z,27.10
2022-08-25T08:33:41.065Z,27.10
2022-08-25T08:36:28.588Z,27.40
2022-08-25T08:39:16.871Z,26.50
2022-08-25T08:42:19.229Z,26.50
2022-08-25T08:45:21.687Z,26.90
2022-08-25T08:48:39.697Z,26.60
2022-08-25T08:51:33.364Z,27.10
2022-08-25T08:54:26.346Z,26.50
2022-08-25T08:57:20.818Z,26.80
2022-08-25T09:00:09.289Z,26.60
2022-08-25T09:03:01.832Z,27.60
2022-08-25T09:05:54.256Z,27.70
2022-08-25T09:08:45.037Z,27.80
2022-08-25T09:11:54.998Z,28.30
2022-08-25T09:15:12.219Z,28.30
2022-08-25T09:18:08.883Z,28.50
2022-08-25T09:21:10.124Z,29.30
2022-08-25T09:24:12.026Z,29.20
2022-08-25T09:27:13.918Z,29.50
2022-08-25T09:30:08.224Z,29.80
2022-08-25T09:33:03.882Z,29.40
2022-08-25T09:35:54.083Z,29.10
2022-08-25T09:38:44.468Z,28.90
2022-08-25T09:41:45.394Z,29.10
2022-08-25T09:44:38.461Z,28.20
2022-08-25T09:47:28.628Z,29.00
2022-08-25T09:50:29.242Z,29.00
2022-08-25T09:53:19.403Z,28.10
2022-08-25T09:56:12.562Z,28.00
2022-08-25T09:59:21.717Z,28.40
2022-08-25T10:02:26.569Z,28.00
2022-08-25T10:05:26.029Z,28.60
2022-08-25T10:08:24.686Z,28.20
2022-08-25T10:11:15.233Z,29.00
2022-08-25T10:14:05.911Z,29.20
2022-08-25T10:16:54.609Z,29.60
2022-08-25T10:19:41.942Z,30.20
2022-08-25T10:22:32.524Z,29.50
2022-08-25T10:25:25.756Z,29.80
2022-08-25T10:28:20.127Z,30.10
2022-08-25T10:31:15.068Z,30.00
2022-08-25T10:34:20.818Z,30.50
2022-08-25T10:37:17.793Z,30.80
2022-08-25T10:40:22.346Z,30.80
2022-08-25T10:43:23.715Z,30.70
2022-08-25T10:46:22.175Z,31.90
2022-08-25T10:49:16.334Z,31.50
2022-08-25T10:52:06.534Z,32.00
2022-08-25T10:55:00.695Z,32.20
2022-08-25T10:57:57.565Z,33.50
2022-08-25T11:01:00.458Z,33.50
2022-08-25T11:03:59.152Z,31.20
2022-08-25T11:06:54.567Z,29.80
2022-08-25T11:09:46.191Z,30.50
2022-08-25T11:12:39.851Z,30.30
2022-08-25T11:15:33.829Z,30.90
2022-08-25T11:18:22.693Z,30.90
2022-08-25T11:21:14.146Z,31.50
2022-08-25T11:24:09.321Z,30.60
2022-08-25T11:26:58.356Z,30.30
2022-08-25T11:29:51.155Z,30.70
2022-08-25T11:32:40.302Z,31.30
2022-08-25T11:35:30.908Z,31.60
2022-08-25T11:38:36.982Z,31.60
2022-08-25T11:41:35.907Z,31.20
2022-08-25T11:44:53.928Z,32.00
2022-08-25T11:48:03.503Z,31.90
2022-08-25T11:51:01.097Z,31.20
2022-08-25T11:53:49.676Z,29.50
2022-08-25T11:56:42.576Z,28.90
2022-08-25T12:00:05.956Z,28.80
2022-08-25T12:02:52.836Z,28.70
2022-08-25T12:06:12.164Z,29.30
2022-08-25T12:09:18.763Z,28.70
2022-08-25T12:12:32.150Z,28.70
2022-08-25T12:15:24.521Z,29.10
2022-08-25T12:18:15.271Z,29.70
2022-08-25T12:21:14.136Z,29.60
2022-08-25T12:24:17.536Z,28.80
2022-08-25T12:27:07.681Z,29.30
2022-08-25T12:30:02.661Z,29.70
2022-08-25T12:33:05.327Z,30.00
2022-08-25T12:35:59.330Z,29.60
2022-08-25T12:38:52.262Z,29.70
2022-08-25T12:41:55.345Z,29.90
2022-08-25T12:44:47.205Z,29.50
2022-08-25T12:47:36.284Z,29.50
2022-08-25T12:50:35.615Z,29.50
2022-08-25T12:53:33.100Z,28.70
2022-08-25T12:56:39.032Z,28.40
2022-08-25T12:59:36.287Z,28.40
2022-08-25T13:03:00.065Z,27.80
2022-08-25T13:06:08.101Z,27.90
2022-08-25T13:09:40.117Z,27.50
2022-08-25T13:12:32.379Z,28.00
2022-08-25T13:15:30.400Z,27.90
2022-08-25T13:18:23.919Z,27.80
2022-08-25T13:21:17.028Z,27.80
2022-08-25T13:24:08.367Z,28.00
2022-08-25T13:26:57.483Z,28.60
2022-08-25T13:29:53.387Z,29.10
2022-08-25T13:32:40.534Z,29.20
2022-08-25T13:35:33.018Z,29.40
2022-08-25T13:38:19.963Z,29.60
2022-08-25T13:41:42.487Z,30.10
2022-08-25T13:44:39.868Z,30.70
2022-08-25T13:47:43.760Z,31.10
2022-08-25T13:50:37.182Z,31.40
2022-08-25T13:53:26.329Z,30.90
2022-08-25T13:56:23.829Z,30.20
2022-08-25T13:59:24.332Z,30.10
2022-08-25T14:02:15.232Z,30.30
2022-08-25T14:05:07.274Z,29.80
2022-08-25T14:08:09.202Z,30.20
2022-08-25T14:11:15.045Z,30.40
2022-08-25T14:14:03.610Z,30.50
2022-08-25T14:16:54.698Z,30.60
2022-08-25T14:19:47.695Z,30.80
2022-08-25T14:22:42.118Z,30.70
2022-08-25T14:25:37.414Z,30.30
2022-08-25T14:28:31.985Z,30.30
2022-08-25T14:31:25.521Z,30.10
2022-08-25T14:34:16.576Z,30.00
2022-08-25T14:37:03.821Z,30.00
2022-08-25T14:39:53.309Z,29.20
2022-08-25T14:42:42.024Z,28.80
2022-08-25T14:45:29.118Z,27.90
2022-08-25T14:48:28.144Z,28.40
2022-08-25T14:51:16.597Z,28.90
2022-08-25T14:54:06.526Z,28.90
2022-08-25T14:56:53.488Z,28.80
2022-08-25T14:59:43.273Z,28.90
2022-08-25T15:02:34.325Z,29.60
2022-08-25T15:05:28.302Z,29.70
2022-08-25T15:08:33.571Z,29.90
2022-08-25T15:11:20.586Z,30.00
2022-08-25T15:14:10.783Z,30.50
2022-08-25T15:16:59.496Z,31.10
2022-08-25T15:19:46.688Z,31.40
2022-08-25T15:22:34.471Z,31.10
2022-08-25T15:25:22.837Z,31.40
2022-08-25T15:28:11.292Z,31.70
2022-08-25T15:31:04.187Z,31.50
2022-08-25T15:33:53.586Z,30.70
2022-08-25T15:36:41.899Z,31.00
2022-08-25T15:39:29.266Z,30.60
2022-08-25T15:42:17.083Z,30.80
2022-08-25T15:45:03.761Z,31.00
2022-08-25T15:47:54.109Z,31.10
2022-08-25T15:50:42.937Z,31.30
2022-08-25T15:53:30.952Z,31.10
2022-08-25T15:56:26.985Z,31.20
2022-08-25T15:59:15.130Z,31.00
2022-08-25T16:02:02.369Z,30.80
2022-08-25T16:04:53.061Z,30.70
2022-08-25T16:07:42.157Z,30.50
2022-08-25T16:10:29.227Z,30.40
2022-08-25T16:13:18.511Z,30.50
2022-08-25T16:16:06.566Z,30.40
2022-08-25T16:18:53.823Z,30.20
2022-08-25T16:21:47.161Z,29.80
2022-08-25T16:24:38.406Z,29.90
2022-08-25T16:27:25.478Z,30.00
2022-08-25T16:30:17.584Z,29.80
2022-08-25T16:33:07.829Z,29.60
2022-08-25T16:36:06.813Z,29.60
2022-08-25T16:38:54.242Z,29.50
2022-08-25T16:41:43.359Z,29.20
2022-08-25T16:44:30.701Z,29.10
2022-08-25T16:47:20.307Z,29.00
2022-08-25T16:50:10.949Z,29.00
2022-08-25T16:53:16.187Z,28.80
2022-08-25T16:56:07.617Z,28.70
2022-08-25T16:59:01.398Z,28.50
2022-08-25T17:01:48.634Z,28.20
2022-08-25T17:04:38.276Z,27.90
2022-08-25T17:07:25.222Z,27.60
2022-08-25T17:10:12.716Z,27.40
2022-08-25T17:12:59.741Z,27.10
2022-08-25T17:15:52.476Z,26.90
2022-08-25T17:18:39.856Z,26.50
2022-08-25T17:21:27.975Z,26.30
2022-08-25T17:24:16.982Z,26.10
2022-08-25T17:27:04.284Z,25.80
2022-08-25T17:29:52.748Z,25.50
2022-08-25T17:32:41.551Z,25.20
2022-08-25T17:35:32.278Z,24.90
2022-08-25T17:38:20.924Z,24.70
2022-08-25T17:41:10.911Z,24.40
2022-08-25T17:43:58.794Z,24.20
2022-08-25T17:46:47.589Z,24.00
2022-08-25T17:49:37.325Z,23.90
2022-08-25T17:52:25.387Z,23.70
2022-08-25T17:55:12.829Z,23.50
2022-08-25T17:58:03.161Z,23.40
2022-08-25T18:00:50.581Z,23.20
2022-08-25T18:03:37.727Z,23.10
2022-08-25T18:06:29.525Z,22.90
2022-08-25T18:09:18.182Z,22.70
2022-08-25T18:12:05.621Z,22.60
2022-08-25T18:14:52.323Z,22.40
2022-08-25T18:17:40.288Z,22.30
2022-08-25T18:20:27.515Z,22.10
2022-08-25T18:23:16.372Z,21.90
2022-08-25T18:26:03.812Z,21.70
2022-08-25T18:28:54.122Z,21.60
2022-08-25T18:31:48.723Z,21.40
2022-08-25T18:34:36.453Z,21.20
2022-08-25T18:37:41.772Z,21.00
2022-08-25T18:40:30.517Z,20.80
2022-08-25T18:43:21.438Z,20.60
2022-08-25T18:46:10.024Z,20.50
2022-08-25T18:48:57.026Z,20.40
2022-08-25T18:51:45.660Z,20.20
2022-08-25T18:54:33.224Z,20.10
2022-08-25T18:57:24.737Z,19.90
2022-08-25T19:00:13.497Z,19.80
2022-08-25T19:03:01.781Z,19.70
2022-08-25T19:05:57.367Z,19.50
2022-08-25T19:08:45.348Z,19.40
2022-08-25T19:11:32.323Z,19.30
2022-08-25T19:14:21.473Z,19.20
2022-08-25T19:17:09.142Z,19.10
2022-08-25T19:19:56.209Z,19.00
2022-08-25T19:22:42.861Z,18.90
2022-08-25T19:25:33.118Z,18.80
2022-08-25T19:28:21.826Z,18.70
2022-08-25T19:31:10.703Z,18.60
2022-08-25T19:33:58.803Z,18.50
2022-08-25T19:36:46.939Z,18.40
2022-08-25T19:39:36.314Z,18.30
2022-08-25T19:42:35.185Z,18.10
2022-08-25T19:45:25.104Z,18.10
2022-08-25T19:48:17.158Z,18.10
2022-08-25T19:51:04.792Z,18.00
2022-08-25T19:53:55.266Z,17.80
2022-08-25T19:56:54.825Z,17.70
2022-08-25T19:59:44.838Z,17.70
2022-08-25T20:02:32.114Z,17.50
2022-08-25T20:05:23.774Z,17.40
2022-08-25T20:08:11.161Z,17.40
2022-08-25T20:10:58.603Z,17.30
2022-08-25T20:13:45.742Z,17.20
2022-08-25T20:16:36.195Z,17.10
2022-08-25T20:19:23.311Z,17.10
2022-08-25T20:22:11.897Z,17.10
2022-08-25T20:25:13.469Z,16.90
2022-08-25T20:28:01.702Z,16.80
2022-08-25T20:30:48.952Z,16.70
2022-08-25T20:33:36.189Z,16.70
2022-08-25T20:36:23.053Z,16.60
2022-08-25T20:39:12.260Z,16.60
2022-08-25T20:41:58.990Z,16.60
2022-08-25T20:44:47.096Z,16.50
2022-08-25T20:47:33.988Z,16.50
2022-08-25T20:50:24.007Z,16.40
2022-08-25T20:53:13.479Z,16.40
2022-08-25T20:56:02.852Z,16.30
2022-08-25T20:58:49.734Z,16.20
2022-08-25T21:01:41.197Z,16.20
2022-08-25T21:04:30.365Z,16.10
2022-08-25T21:07:18.639Z,16.10
2022-08-25T21:10:10.254Z,16.00
2022-08-25T21:12:59.492Z,16.00
2022-08-25T21:15:48.649Z,16.00
2022-08-25T21:18:36.291Z,15.90
2022-08-25T21:21:24.091Z,15.80
2022-08-25T21:24:13.485Z,15.80
2022-08-25T21:27:00.985Z,15.70
2022-08-25T21:29:54.534Z,15.70
2022-08-25T21:32:52.995Z,15.70
2022-08-25T21:35:41.168Z,15.60
2022-08-25T21:38:30.591Z,15.60
2022-08-25T21:41:21.532Z,15.50
2022-08-25T21:44:12.544Z,15.40
2022-08-25T21:47:03.216Z,15.40
2022-08-25T21:49:51.587Z,15.30
2022-08-25T21:52:38.984Z,15.20
2022-08-25T21:55:28.157Z,15.20
2022-08-25T21:58:15.354Z,15.20
2022-08-25T22:01:08.420Z,15.10
2022-08-25T22:03:59.530Z,15.10
2022-08-25T22:06:46.552Z,15.00
2022-08-25T22:09:33.956Z,14.90
2022-08-25T22:12:21.414Z,14.90
2022-08-25T22:15:09.419Z,14.90
2022-08-25T22:18:00.476Z,14.80
2022-08-25T22:20:49.713Z,14.80
2022-08-25T22:23:41.846Z,14.80
2022-08-25T22:26:33.582Z,14.70
2022-08-25T22:29:24.907Z,14.70
2022-08-25T22:32:13.625Z,14.60
2022-08-25T22:35:00.717Z,14.60
2022-08-25T22:37:49.262Z,14.50
2022-08-25T22:40:38.755Z,14.50
2022-08-25T22:43:26.056Z,14.50
2022-08-25T22:46:12.975Z,14.40
2022-08-25T22:49:00.441Z,14.40
2022-08-25T22:51:47.592Z,14.40
2022-08-25T22:54:37.707Z,14.40
2022-08-25T22:57:24.727Z,14.30
2022-08-25T23:00:15.250Z,14.30
2022-08-25T23:03:03.044Z,14.20
2022-08-25T23:05:54.056Z,14.20
2022-08-25T23:08:42.180Z,14.10
2022-08-25T23:11:30.724Z,14.10
2022-08-25T23:14:18.202Z,14.10
2022-08-25T23:17:07.369Z,14.00
2022-08-25T23:19:54.553Z,14.00
2022-08-25T23:22:40.357Z,13.90
2022-08-25T23:25:28.923Z,13.90
2022-08-25T23:28:18.550Z,13.80
2022-08-25T23:31:08.559Z,13.80
2022-08-25T23:34:00.007Z,13.80
2022-08-25T23:36:49.717Z,13.80
2022-08-25T23:39:39.335Z,13.70
2022-08-25T23:42:26.797Z,13.60
2022-08-25T23:45:15.516Z,13.60
2022-08-25T23:48:02.556Z,13.50
2022-08-25T23:50:53.961Z,13.50
2022-08-25T23:53:41.566Z,13.50
2022-08-25T23:56:28.590Z,13.40
2022-08-25T23:59:16.451Z,13.40
